Somerset, Texas
Current Conditions -  °F | °C
As of 1:58 AM on Monday 26 Jan 2015 (Local Time) from KSKF Reporting Station
Clear Clear  
Wind Chill: 42°   Ceiling: Unl
Heat Index: 42°   Visibility: 10mi
Dew Point: 35°   Wind: 1mph
Humidity: 76%   Direction: 360°N
Pressure: 30.21"   Gusts: NA
Location:  29.23°N, 98.66°W
Report Text: KSKF 260758Z AUTO 36001KT 10SM CLR 06/02 A3021 RMK AO2 SLP229 T00550015 $
Loading
Personal Weather Stations






























Interactive Weather Map New forecast layout! Learn more

10-Day Weather Forecast

Advertisements
Track Severe Weather on mobile